M I D A S
Marine Information and Data Acquisition System
Tripno 388 of the Zeeleeuw from 2002-09-30 08:13:18 to 2002-09-30 14:28:29
Back to CruiseResearch ActivitiesStationsMapUnderway DataData graphs

EquipmentUnitsComment
TimeDGPSUTC
LatitudeDGPSDM.mWGS84
LongitudeDGPSDM.mWGS84
TemperatureSBE03/SBE38deg celciusITS90
ConductivitySBE21S/mITS90
SalinitySBE21 Practical Salinity Units
ChlorophylAChelsea fluorimeterg/lCalibrated in Aceton
Missing or incorrect values are displayed as -999
Sea surface data collected by the RV Zeeleeuw from 2002-09-30 08:13:18 to 2002-09-30 14:28:29
Time Latitude Longitude Temperature Conductivity Salinity ChlorophylA
2002-09-30 08:14:27 51°13.622 2°56.008 20.774926 0.075996 0.398776  
2002-09-30 08:15:30 51°13.576 2°56.09 18.832965 0.278751 1.572876  
2002-09-30 08:16:31 51°13.541 2°56.19 16.544399 3.253778 24.23224  
2002-09-30 08:17:29 51°13.552 2°56.266 16.358974 3.041534 22.921762  
2002-09-30 08:18:31 51°13.556 2°56.274 16.259026 2.83358 21.309752  
2002-09-30 08:19:31 51°13.542 2°56.263 16.311152 2.857361 21.546453  
2002-09-30 08:20:29 51°13.548 2°56.264 16.355008 3.161655 24.089628  
2002-09-30 08:21:31 51°13.531 2°56.265 16.336368 3.127122 23.804679  
2002-09-30 08:22:32 51°13.535 2°56.258 16.161541 3.437364 26.421551  
2002-09-30 08:23:34 51°13.531 2°56.259 16.434755 3.344042 25.655056  
2002-09-30 08:24:33 51°13.545 2°56.218 16.340378 3.482241 26.826273  
2002-09-30 08:25:33 51°13.567 2°56.125 16.290494 3.510896 27.06996  
2002-09-30 08:26:32 51°13.601 2°56.014 16.180228 3.357629 25.779013  
2002-09-30 08:27:31 51°13.645 2°55.899 16.240702 3.393019 26.082263  
2002-09-30 08:28:31 51°13.694 2°55.782 16.228825 3.420301 26.325266  
2002-09-30 08:29:32 51°13.761 2°55.686 16.102495 3.492671 26.950884  
2002-09-30 08:30:37 51°13.854 2°55.613 16.286951 3.47255 26.7964  
2002-09-30 08:31:42 51°13.958 2°55.534 16.264065 3.534391 27.344548  
2002-09-30 08:32:42 51°14.057 2°55.462 16.170308 3.617522 28.061331  
2002-09-30 08:33:42 51°14.159 2°55.385 16.023731 3.630694 28.17104  
2002-09-30 08:34:42 51°14.263 2°55.263 16.283322 3.602139 27.936795  
2002-09-30 08:35:42 51°14.347 2°55.083 16.06957 3.601612 27.942697  
2002-09-30 08:36:43 51°14.434 2°54.856 16.154997 3.660409 28.378852  
2002-09-30 08:37:42 51°14.459 2°54.583 15.994712 3.795308 29.640229  
2002-09-30 08:38:43 51°14.401 2°54.31 16.193353 3.849696 30.125941  
2002-09-30 08:39:43 51°14.304 2°54.03 16.254798 3.878473 30.375465  
2002-09-30 08:40:43 51°14.204 2°53.731 16.088411 3.940037 30.897049  
2002-09-30 08:41:42 51°14.087 2°53.443 16.111612 3.951106 30.993153  
2002-09-30 08:42:43 51°13.973 2°53.136 16.200278 3.957748 31.052929  
2002-09-30 08:43:42 51°13.868 2°52.832 16.099542 3.963441 31.106763  
2002-09-30 08:44:42 51°13.762 2°52.522 16.058435 3.966392 31.115671  
2002-09-30 08:45:42 51°13.657 2°52.203 15.963579 3.970715 31.154613  
2002-09-30 08:46:42 51°13.544 2°51.879 15.927326 3.976197 31.202534  
2002-09-30 08:47:42 51°13.433 2°51.556 16.047554 3.977568 31.20517  
2002-09-30 08:48:42 51°13.323 2°51.227 16.091536 3.983682 31.246927  
2002-09-30 08:49:42 51°13.21 2°50.902 16.166887 3.984209 31.246858  
2002-09-30 08:50:42 51°13.098 2°50.574 16.327921 3.987794 31.271164  
2002-09-30 08:51:42 51°12.988 2°50.246 16.321692 3.991167 31.291282  
2002-09-30 08:52:42 51°12.875 2°49.92 16.337392 3.994014 31.326103  
2002-09-30 08:53:46 51°12.756 2°49.572 16.125178 3.993593 31.334721  
2002-09-30 08:54:46 51°12.655 2°49.236 16.152516 3.993698 31.330955  
2002-09-30 08:55:46 51°12.561 2°48.895 16.285158 3.992855 31.338235  
2002-09-30 08:56:46 51°12.463 2°48.558 16.466823 3.994331 31.348797  
2002-09-30 08:57:46 51°12.367 2°48.218 16.291177 3.996861 31.366231  
2002-09-30 08:58:45 51°12.27 2°47.883 16.378886 4.004873 31.405173  
2002-09-30 08:59:47 51°12.169 2°47.532 16.19455 4.007087 31.42276  
2002-09-30 09:00:47 51°12.072 2°47.192 16.233482 4.008142 31.434911  
2002-09-30 09:01:47 51°11.978 2°46.85 16.235063 4.008036 31.431053  
2002-09-30 09:02:47 51°11.89 2°46.504 16.165262 4.009301 31.439172  
2002-09-30 09:03:47 51°11.802 2°46.157 16.065801 4.008985 31.435821  
2002-09-30 09:04:47 51°11.712 2°45.81 16.003501 4.01025 31.444527  
2002-09-30 09:05:47 51°11.635 2°45.455 16.10532 4.010988 31.445689  
2002-09-30 09:06:47 51°11.559 2°45.098 16.073639 4.011937 31.452805  
2002-09-30 09:07:47 51°11.48 2°44.743 16.076165 4.013729 31.46494  
2002-09-30 09:08:46 51°11.401 2°44.394 16.113709 4.015522 31.477073  
2002-09-30 09:09:47 51°11.321 2°44.032 16.401392 4.017208 31.490047  
2002-09-30 09:10:47 51°11.241 2°43.675 16.164663 4.018263 31.493378  
2002-09-30 09:11:47 51°11.16 2°43.318 16.214511 4.021004 31.50615  
2002-09-30 09:12:47 51°11.083 2°42.96 16.102795 4.022058 31.511829  
2002-09-30 09:13:46 51°11.005 2°42.61 16.039371 4.022902 31.520371  
2002-09-30 09:14:47 51°10.929 2°42.246 16.24916 4.024061 31.52697  
2002-09-30 09:15:47 51°10.848 2°41.89 16.253773 4.023218 31.515489  
2002-09-30 09:16:46 51°10.77 2°41.538 16.262443 4.023534 31.518251  
2002-09-30 09:17:47 51°10.694 2°41.17 16.116919 4.026064 31.532699  
2002-09-30 09:18:47 51°10.614 2°40.812 16.18181 4.026064 31.539757  
2002-09-30 09:19:47 51°10.537 2°40.454 16.234508 4.022796 31.514746  
2002-09-30 09:20:47 51°10.462 2°40.096 16.238652 4.017525 31.485168  
2002-09-30 09:21:47 51°10.381 2°39.741 16.063103 4.010566 31.441417  
2002-09-30 09:22:47 51°10.307 2°39.382 16.183521 4.009196 31.424161  
2002-09-30 09:23:46 51°10.232 2°39.03 16.30411 4.010988 31.429839  
2002-09-30 09:24:47 51°10.204 2°38.656 16.126462 4.012147 31.429994  
2002-09-30 09:25:47 51°10.048 2°38.391 16.197671 4.011831 31.431925  
2002-09-30 09:26:47 51°9.92 2°38.225 16.116277 4.011199 31.431094  
2002-09-30 09:27:46 51°9.838 2°38.176 16.010102 4.005401 31.417412  
2002-09-30 09:28:47 51°9.788 2°38.134 16.189506 4.00034 31.40077  
2002-09-30 09:29:47 51°9.757 2°38.09 16.182452 3.993698 31.363219  
2002-09-30 09:30:46 51°9.735 2°38.047 15.92591 3.993488 31.367835  
2002-09-30 09:31:47 51°9.722 2°38.003 15.963923 3.990536 31.344935  
2002-09-30 09:32:47 51°9.713 2°37.962 16.06987 3.991801 31.35131  
2002-09-30 09:33:46 51°9.707 2°37.924 16.033587 3.991168 31.348123  
2002-09-30 09:34:47 51°9.702 2°37.886 16.064688 3.99043 31.341077  
2002-09-30 09:35:47 51°9.698 2°37.851 16.140239 3.991801 31.357183  
2002-09-30 09:36:46 51°9.696 2°37.816 16.274783 3.991801 31.357183  
2002-09-30 09:37:47 51°9.693 2°37.782 15.99557 3.991485 31.352066  
2002-09-30 09:38:46 51°9.691 2°37.749 15.998571 3.992539 31.36188  
2002-09-30 09:39:47 51°9.689 2°37.716 16.068457 3.992961 31.366159  
2002-09-30 09:40:47 51°9.688 2°37.684 15.895862 3.992433 31.359195  
2002-09-30 09:41:47 51°9.687 2°37.652 16.071112 3.993277 31.364815  
2002-09-30 09:42:47 51°9.686 2°37.62 16.037443 3.993488 31.368423  
2002-09-30 09:43:47 51°9.686 2°37.589 16.036715 3.994647 31.375048  
2002-09-30 09:44:47 51°9.685 2°37.558 16.073424 3.995596 31.380414  
2002-09-30 09:45:47 51°9.684 2°37.527 16.038943 3.995385 31.382095  
2002-09-30 09:46:47 51°9.678 2°37.476 16.037315 3.994964 31.378991  
2002-09-30 09:47:47 51°9.662 2°37.402 16.217032 3.996545 31.393421  
2002-09-30 09:48:47 51°9.651 2°37.313 16.07351 3.995702 31.380161  
2002-09-30 09:49:46 51°9.654 2°37.231 16.145202 3.996229 31.387713  
2002-09-30 09:50:47 51°9.675 2°37.162 16.001957 3.996123 31.387378  
2002-09-30 09:51:47 51°9.705 2°37.1 15.899468 3.995491 31.380666  
2002-09-30 09:52:47 51°9.743 2°37.049 16.112939 3.995491 31.380079  
2002-09-30 09:53:47 51°9.786 2°37.014 16.256165 3.995702 31.380749  
2002-09-30 09:54:47 51°9.831 2°37.002 16.026002 3.997072 31.388629  
2002-09-30 09:55:47 51°9.87 2°37.017 16.371937 4.000129 31.399513  
2002-09-30 09:56:47 51°9.9 2°37.047 16.469208 4.006138 31.417404  
2002-09-30 09:57:47 51°9.923 2°37.087 16.148966 4.008668 31.398449  
2002-09-30 09:58:47 51°9.941 2°37.134 16.196089 4.018368 31.464932  
2002-09-30 09:59:47 51°9.951 2°37.18 16.344089 4.018578 31.460319  
2002-09-30 10:00:47 51°9.957 2°37.233 16.342553 4.020371 31.468918  
2002-09-30 10:01:47 51°9.958 2°37.281 16.295403 4.020265 31.470345  
2002-09-30 10:02:46 51°9.953 2°37.328 16.391121 4.018473 31.464092  
2002-09-30 10:03:47 51°9.943 2°37.377 16.278541 4.017103 31.460344  
2002-09-30 10:04:46 51°9.93 2°37.421 16.16368 4.016575 31.45985  
2002-09-30 10:05:47 51°9.912 2°37.463 16.225535 4.014467 31.450831  
2002-09-30 10:06:47 51°9.889 2°37.498 16.395426 4.012569 31.440716  
2002-09-30 10:07:47 51°9.861 2°37.527 16.280931 4.011937 31.441061  
2002-09-30 10:08:47 51°9.828 2°37.547 16.123595 4.008774 31.422237  
2002-09-30 10:09:46 51°9.791 2°37.554 16.098643 4.005822 31.413465  
2002-09-30 10:10:47 51°9.749 2°37.543 16.147041 4.002449 31.401001  
2002-09-30 10:11:47 51°9.71 2°37.512 16.270599 3.998864 31.383162  
2002-09-30 10:12:47 51°9.678 2°37.468 16.15628 3.995069 31.364055  
2002-09-30 10:13:47 51°9.651 2°37.42 16.296812 3.994331 31.363469  
2002-09-30 10:14:47 51°9.634 2°37.369 16.01906 3.992644 31.34695  
2002-09-30 10:15:47 51°9.623 2°37.319 15.945905 3.994858 31.365145  
2002-09-30 10:16:47 51°9.616 2°37.272 16.155211 3.994331 31.363469  
2002-09-30 10:17:47 51°9.611 2°37.226 15.977046 3.993171 31.35391  
2002-09-30 10:18:47 51°9.606 2°37.183 16.118888 3.995174 31.370849  
2002-09-30 10:19:47 51°9.602 2°37.141 16.189378 3.99412 31.362211  
2002-09-30 10:20:46 51°9.6 2°37.101 16.157221 3.995702 31.373112  
2002-09-30 10:21:47 51°9.597 2°37.061 16.194935 3.994436 31.364392  
2002-09-30 10:22:47 51°9.595 2°37.022 16.300738 3.995174 31.366738  
2002-09-30 10:23:47 51°9.594 2°36.984 16.162268 3.992855 31.345274  
2002-09-30 10:24:47 51°9.591 2°36.948 16.20062 3.99528 31.364138  
2002-09-30 10:25:47 51°9.59 2°36.912 16.132795 3.994963 31.363719  
2002-09-30 10:26:47 51°9.589 2°36.876 16.099242 3.99665 31.374366  
2002-09-30 10:27:47 51°9.588 2°36.84 16.032773 3.997494 31.380569  
2002-09-30 10:28:47 51°9.588 2°36.804 16.107675 3.997704 31.378303  
2002-09-30 10:29:47 51°9.588 2°36.767 16.109001 3.997599 31.376794  
2002-09-30 10:30:47 51°9.587 2°36.73 16.251808 3.998653 31.381318  
2002-09-30 10:31:47 51°9.586 2°36.694 16.214938 3.999602 31.389616  
2002-09-30 10:32:46 51°9.585 2°36.658 16.463758 3.999708 31.389363  
2002-09-30 10:33:47 51°9.585 2°36.62 16.004787 3.999813 31.390873  
2002-09-30 10:34:47 51°9.586 2°36.583 16.042585 4.000762 31.399171  
2002-09-30 10:35:46 51°9.586 2°36.547 16.221049 4.000446 31.392294  
2002-09-30 10:36:47 51°9.585 2°36.51 16.288744 3.999391 31.384836  
2002-09-30 10:37:47 51°9.585 2°36.474 16.076765 4.000235 31.392799  
2002-09-30 10:38:47 51°9.585 2°36.438 16.107332 4.000024 31.393304  
2002-09-30 10:39:47 51°9.585 2°36.4 16.0401 3.999602 31.38668  
2002-09-30 10:40:46 51°9.584 2°36.364 16.111527 3.999075 31.384419  
2002-09-30 10:41:47 51°9.582 2°36.315 16.07882 3.999813 31.389698  
2002-09-30 10:42:47 51°9.579 2°36.267 16.226347 4.000446 31.390533  
2002-09-30 10:43:47 51°9.574 2°36.21 16.26193 4.00034 31.387849  
2002-09-30 10:44:47 51°9.569 2°36.128 16.200577 4.001394 31.394132  
2002-09-30 10:45:47 51°9.576 2°36.041 16.100655 4.002554 31.397226  
2002-09-30 10:46:47 51°9.595 2°35.961 16.172275 4.002976 31.400326  
2002-09-30 10:47:47 51°9.62 2°35.897 16.111698 4.003924 31.402163  
2002-09-30 10:48:47 51°9.647 2°35.844 16.38268 4.005611 31.408101  
2002-09-30 10:49:47 51°9.677 2°35.801 16.248049 4.010355 31.423729  
2002-09-30 10:50:47 51°9.708 2°35.769 16.252064 4.014677 31.429214  
2002-09-30 10:51:47 51°9.74 2°35.749 16.409575 4.019 31.442312  
2002-09-30 10:52:47 51°9.77 2°35.742 16.246255 4.021214 31.450487  
2002-09-30 10:53:47 51°9.798 2°35.747 16.359997 4.021952 31.449894  
2002-09-30 10:54:47 51°9.827 2°35.772 16.43582 4.024166 31.461577  
2002-09-30 10:55:47 51°9.849 2°35.813 16.266884 4.022268 31.4427  
2002-09-30 10:56:47 51°9.861 2°35.861 16.307653 4.024166 31.452798  
2002-09-30 10:57:47 51°9.864 2°35.913 16.244162 4.024165 31.448702  
2002-09-30 10:58:47 51°9.859 2°35.967 16.318876 4.024693 31.449199  
2002-09-30 10:59:47 51°9.846 2°36.019 16.596181 4.026379 31.459211  
2002-09-30 11:00:49 51°9.824 2°36.068 16.349079 4.027223 31.467142  
2002-09-30 11:01:49 51°9.794 2°36.107 16.44996 4.029015 31.486265  
2002-09-30 11:02:49 51°9.755 2°36.133 16.333169 4.028067 31.481513  
2002-09-30 11:03:49 51°9.707 2°36.142 16.350615 4.02522 31.467837  
2002-09-30 11:04:49 51°9.656 2°36.128 16.216946 4.021425 31.454082  
2002-09-30 11:05:49 51°9.611 2°36.09 16.291988 4.017524 31.4435  
2002-09-30 11:06:49 51°9.574 2°36.038 16.199466 4.01278 31.423789  
2002-09-30 11:07:50 51°9.543 2°35.976 16.467547 4.011093 31.419617  
2002-09-30 11:08:49 51°9.522 2°35.911 16.146528 4.009933 31.420046  
2002-09-30 11:09:49 51°9.515 2°35.843 16.107675 4.008141 31.407327  
2002-09-30 11:10:49 51°9.517 2°35.777 16.065116 4.007825 31.408083  
2002-09-30 11:11:50 51°9.523 2°35.719 16.233867 4.007192 31.40901  
2002-09-30 11:12:49 51°9.53 2°35.668 16.15812 4.005822 31.402903  
2002-09-30 11:13:49 51°9.548 2°35.607 16.156109 4.006138 31.405666  
2002-09-30 11:14:49 51°9.58 2°35.546 16.231816 4.005189 31.400896  
2002-09-30 11:15:50 51°9.624 2°35.502 16.140881 4.006982 31.405995  
2002-09-30 11:16:50 51°9.672 2°35.486 16.198868 4.008668 31.40724  
2002-09-30 11:17:50 51°9.712 2°35.495 16.129243 4.011409 31.411242  
2002-09-30 11:18:49 51°9.739 2°35.521 16.25262 4.015732 31.426695  
2002-09-30 11:19:49 51°9.759 2°35.562 16.281956 4.017945 31.428436  
2002-09-30 11:20:50 51°9.77 2°35.614 16.660874 4.023428 31.450464  
2002-09-30 11:21:50 51°9.771 2°35.67 16.215408 4.026696 31.463721  
2002-09-30 11:22:50 51°9.765 2°35.727 16.525939 4.02891 31.481248  
2002-09-30 11:23:50 51°9.753 2°35.783 16.252919 4.029121 31.481328  
2002-09-30 11:24:49 51°9.737 2°35.836 16.263339 4.029331 31.476142  
2002-09-30 11:25:50 51°9.713 2°35.887 16.428791 4.030069 31.480813  
2002-09-30 11:26:50 51°9.685 2°35.934 16.279608 4.029121 31.480158  
2002-09-30 11:27:50 51°9.653 2°35.976 16.284817 4.026274 31.465314  
2002-09-30 11:28:50 51°9.614 2°36.009 16.328902 4.02037 31.437281  
2002-09-30 11:29:50 51°9.567 2°36.022 16.135918 4.015942 31.417995  
2002-09-30 11:30:49 51°9.516 2°36.01 16.038557 4.010776 31.38348  
2002-09-30 11:31:50 51°9.463 2°35.969 16.209254 4.00055 31.324092  
2002-09-30 11:32:50 51°9.417 2°35.904 16.047126 3.993276 31.286898  
2002-09-30 11:33:49 51°9.382 2°35.821 16.167486 3.989797 31.271127  
2002-09-30 11:34:49 51°9.358 2°35.735 16.127104 3.98695 31.257367  
2002-09-30 11:35:49 51°9.343 2°35.655 15.985194 3.986107 31.253505  
2002-09-30 11:36:50 51°9.333 2°35.576 16.164791 3.985791 31.250158  
2002-09-30 11:37:50 51°9.331 2°35.5 16.306714 3.985158 31.242296  
2002-09-30 11:38:50 51°9.342 2°35.432 16.107332 3.986739 31.253772  
2002-09-30 11:39:50 51°9.361 2°35.373 16.291391 3.989586 31.272792  
2002-09-30 11:40:50 51°9.384 2°35.323 16.098258 3.995068 31.309561  
2002-09-30 11:41:50 51°9.411 2°35.284 16.148752 4.000761 31.347572  
2002-09-30 11:42:50 51°9.439 2°35.257 16.194251 4.005611 31.377617  
2002-09-30 11:43:50 51°9.468 2°35.243 16.205835 4.009933 31.408321  
2002-09-30 11:44:50 51°9.495 2°35.241 16.427853 4.012253 31.419189  
2002-09-30 11:45:50 51°9.518 2°35.248 16.54291 4.014467 31.429718  
2002-09-30 11:46:50 51°9.539 2°35.26 16.127617 4.014994 31.4267  
2002-09-30 11:47:50 51°9.558 2°35.277 16.310426 4.015415 31.425693  
2002-09-30 11:48:50 51°9.574 2°35.297 16.320966 4.014677 31.414572  
2002-09-30 11:49:49 51°9.587 2°35.321 16.325319 4.015626 31.415822  
2002-09-30 11:50:50 51°9.597 2°35.349 16.3263 4.01531 31.410139  
2002-09-30 11:51:50 51°9.603 2°35.384 16.367971 4.014044 31.398524  
2002-09-30 11:52:50 51°9.606 2°35.422 16.270172 4.016786 31.415985  
2002-09-30 11:53:50 51°9.606 2°35.462 16.389586 4.017734 31.416651  
2002-09-30 11:54:50 51°9.601 2°35.503 16.408424 4.018472 31.411387  
2002-09-30 11:55:50 51°9.592 2°35.543 16.285243 4.021108 31.417397  
2002-09-30 11:56:50 51°9.581 2°35.568 16.316187 4.0229 31.42716  
2002-09-30 11:57:50 51°9.57 2°35.585 16.275381 4.022373 31.426661  
2002-09-30 11:58:50 51°9.56 2°35.59 16.245871 4.023111 31.434257  
2002-09-30 11:59:50 51°9.553 2°35.587 16.213399 4.023533 31.433253  
2002-09-30 12:00:49 51°9.548 2°35.581 16.251509 4.024587 31.442433  
2002-09-30 12:01:49 51°9.545 2°35.57 16.324423 4.02543 31.44627  
2002-09-30 12:02:46 51°9.543 2°35.559 16.284731 4.026063 31.450024  
2002-09-30 12:03:55 51°9.54 2°35.543 16.28392 4.025325 31.44769  
2002-09-30 12:04:55 51°9.539 2°35.528 16.214126 4.025641 31.451029  
2002-09-30 12:05:55 51°9.537 2°35.512 16.144089 4.024692 31.442182  
2002-09-30 12:06:54 51°9.537 2°35.495 16.145244 4.028066 31.469806  
2002-09-30 12:07:54 51°9.538 2°35.476 16.147554 4.025958 31.447352  
2002-09-30 12:08:55 51°9.537 2°35.458 16.146357 4.026168 31.448603  
2002-09-30 12:09:56 51°9.537 2°35.439 16.155254 4.027012 31.4501  
2002-09-30 12:10:54 51°9.537 2°35.422 16.158162 4.02775 31.454186  
2002-09-30 12:12:02 51°9.537 2°35.402 16.15226 4.02775 31.454186  
2002-09-30 12:13:03 51°9.534 2°35.382 16.157008 4.029015 31.465199  
2002-09-30 12:14:02 51°9.533 2°35.364 16.163081 4.030069 31.468529  
2002-09-30 12:15:02 51°9.531 2°35.348 16.162568 4.030913 31.473532  
2002-09-30 12:16:02 51°9.53 2°35.332 16.182965 4.031018 31.472695  
2002-09-30 12:17:02 51°9.528 2°35.316 16.172232 4.031229 31.458752  
2002-09-30 12:18:02 51°9.526 2°35.3 16.167913 4.030385 31.464852  
2002-09-30 12:19:07 51°9.525 2°35.283 16.180912 4.029964 31.458845  
2002-09-30 12:20:07 51°9.523 2°35.267 16.190917 4.032178 31.465254  
2002-09-30 12:21:07 51°9.521 2°35.25 16.187368 4.033021 31.474928  
2002-09-30 12:22:07 51°9.52 2°35.233 16.189677 4.03165 31.461837  
2002-09-30 12:23:06 51°9.516 2°35.239 16.190318 4.03281 31.461996  
2002-09-30 12:24:06 51°9.517 2°35.43 16.169709 4.032389 31.471762  
2002-09-30 12:25:07 51°9.519 2°35.705 16.175055 4.032073 31.483041  
2002-09-30 12:26:07 51°9.53 2°35.982 16.175097 4.03165 31.463589  
2002-09-30 12:27:07 51°9.537 2°36.261 16.129629 4.027539 31.447092  
2002-09-30 12:28:07 51°9.546 2°36.538 16.123296 4.023744 31.433335  
2002-09-30 12:29:07 51°9.555 2°36.821 16.097958 4.022689 31.43  
2002-09-30 12:30:07 51°9.6 2°37.145 16.165604 4.022268 31.45265  
2002-09-30 12:31:07 51°9.651 2°37.48 16.093163 4.028488 31.482844  
2002-09-30 12:32:07 51°9.702 2°37.815 16.093805 4.027751 31.502783  
2002-09-30 12:33:07 51°9.747 2°38.151 16.073853 4.024377 31.467514  
2002-09-30 12:34:06 51°9.792 2°38.48 16.071926 4.021425 31.457011  
2002-09-30 12:35:05 51°9.84 2°38.811 16.066829 4.021319 31.457264  
2002-09-30 12:36:07 51°9.885 2°39.158 16.108145 4.021108 31.457769  
2002-09-30 12:37:07 51°9.928 2°39.494 16.111527 4.021425 31.456425  
2002-09-30 12:38:05 51°10.001 2°39.802 16.087597 4.020792 31.446811  
2002-09-30 12:39:08 51°10.106 2°40.123 16.117476 4.023006 31.453813  
2002-09-30 12:40:06 51°10.199 2°40.423 16.107846 4.02659 31.471581  
2002-09-30 12:41:07 51°10.294 2°40.74 16.101554 4.026907 31.479607  
2002-09-30 12:42:05 51°10.38 2°41.045 16.106947 4.026169 31.474934  
2002-09-30 12:43:07 51°10.478 2°41.367 16.113196 4.025642 31.464486  
2002-09-30 12:44:05 51°10.568 2°41.667 16.121627 4.026063 31.466989  
2002-09-30 12:45:07 51°10.663 2°41.99 16.108959 4.025852 31.457545  
2002-09-30 12:46:06 51°10.751 2°42.299 16.102581 4.024482 31.453212  
2002-09-30 12:47:08 51°10.845 2°42.613 16.107632 4.024271 31.453716  
2002-09-30 12:48:07 51°10.905 2°42.75 16.149437 4.022689 31.444034  
2002-09-30 12:49:07 51°10.949 2°42.767 16.124836 4.024481 31.426907  
2002-09-30 12:50:07 51°10.964 2°42.763 16.113923 4.022689 31.43877  
2002-09-30 12:51:08 51°10.976 2°42.758 16.119016 4.022057 31.429751  
2002-09-30 12:52:12 51°10.984 2°42.752 16.136004 4.022162 31.42015  
2002-09-30 12:53:22 51°10.989 2°42.745 16.145116 4.022162 31.41139  
2002-09-30 12:54:21 51°10.992 2°42.737 16.179117 4.023849 31.421985  
2002-09-30 12:55:23 51°10.992 2°42.727 16.139426 4.022584 31.415061  
2002-09-30 12:56:23 51°10.993 2°42.715 16.172061 4.022267 31.416979  
2002-09-30 12:57:27 51°10.995 2°42.7 16.142977 4.021846 31.409805  
2002-09-30 12:58:29 51°10.995 2°42.686 16.138827 4.022689 31.413643  
2002-09-30 12:59:29 51°10.994 2°42.671 16.131212 4.021424 31.406718  
2002-09-30 13:00:32 51°10.994 2°42.655 16.140667 4.020897 31.406216  
2002-09-30 13:01:30 51°10.994 2°42.639 16.138015 4.021002 31.400712  
2002-09-30 13:02:31 51°10.993 2°42.624 16.138271 4.02058 31.399376  
2002-09-30 13:03:31 51°10.992 2°42.607 16.136517 4.021108 31.404548  
2002-09-30 13:04:31 51°10.991 2°42.59 16.138656 4.021318 31.402298  
2002-09-30 13:05:31 51°10.99 2°42.572 16.134421 4.021318 31.406968  
2002-09-30 13:06:31 51°10.991 2°42.553 16.136902 4.020897 31.40388  
2002-09-30 13:07:31 51°10.992 2°42.534 16.137073 4.020897 31.402713  
2002-09-30 13:08:32 51°10.992 2°42.515 16.135105 4.021846 31.409221  
2002-09-30 13:09:31 51°10.992 2°42.497 16.135234 4.021951 31.410139  
2002-09-30 13:10:31 51°10.989 2°42.474 16.13964 4.021424 31.407302  
2002-09-30 13:11:31 51°10.988 2°42.437 16.141908 4.021213 31.400797  
2002-09-30 13:12:31 51°10.993 2°42.406 16.136902 4.022584 31.413893  
2002-09-30 13:13:32 51°11.002 2°42.378 16.136517 4.023005 31.418148  
2002-09-30 13:14:31 51°11.009 2°42.353 16.136603 4.024798 31.436086  
2002-09-30 13:15:31 51°11.014 2°42.332 16.137929 4.025747 31.442594  
2002-09-30 13:16:31 51°11.011 2°42.299 16.141052 4.026696 31.449685  
2002-09-30 13:17:31 51°11 2°42.252 16.147768 4.027433 31.451433  
2002-09-30 13:18:31 51°10.983 2°42.198 16.164791 4.027644 31.446841  
2002-09-30 13:19:31 51°10.96 2°42.139 16.179801 4.026801 31.426656  
2002-09-30 13:20:31 51°10.928 2°42.085 16.172147 4.028698 31.437911  
2002-09-30 13:21:31 51°10.889 2°42.041 16.177492 4.029331 31.446916  
2002-09-30 13:22:31 51°10.845 2°42.005 16.157991 4.028171 31.437411  
2002-09-30 13:23:31 51°10.81 2°42 16.130869 4.02775 31.455356  
2002-09-30 13:24:31 51°10.785 2°42.014 16.139555 4.027117 31.457449  
2002-09-30 13:25:31 51°10.767 2°42.035 16.124879 4.02659 31.451105  
2002-09-30 13:26:30 51°10.754 2°42.057 16.12843 4.026063 31.452362  
2002-09-30 13:27:32 51°10.743 2°42.077 16.121455 4.024798 31.4431  
2002-09-30 13:28:32 51°10.736 2°42.094 16.118203 4.024903 31.446357  
2002-09-30 13:29:32 51°10.734 2°42.113 16.11709 4.023849 31.442438  
2002-09-30 13:30:31 51°10.734 2°42.132 16.119316 4.023744 31.442105  
2002-09-30 13:31:32 51°10.733 2°42.151 16.114052 4.023954 31.440433  
2002-09-30 13:32:32 51°10.732 2°42.17 16.110799 4.023217 31.440437  
2002-09-30 13:33:33 51°10.73 2°42.188 16.110371 4.023216 31.437513  
2002-09-30 13:34:33 51°10.728 2°42.206 16.116791 4.0229 31.436513  
2002-09-30 13:35:32 51°10.726 2°42.223 16.11204 4.0229 31.435928  
2002-09-30 13:36:33 51°10.722 2°42.242 16.116491 4.023006 31.433338  
2002-09-30 13:37:32 51°10.729 2°42.29 16.111099 4.0229 31.430082  
2002-09-30 13:38:33 51°10.813 2°42.537 16.107161 4.022584 31.430835  
2002-09-30 13:39:33 51°10.897 2°42.854 16.106048 4.021635 31.431925  
2002-09-30 13:40:32 51°10.98 2°43.171 16.116234 4.021424 31.424826  
2002-09-30 13:41:33 51°11.067 2°43.498 16.125178 4.020686 31.409052  
2002-09-30 13:42:32 51°11.155 2°43.811 16.129158 4.019632 31.393452  
2002-09-30 13:43:32 51°11.237 2°44.134 16.135105 4.019421 31.391033  
2002-09-30 13:44:33 51°11.324 2°44.461 16.152046 4.018577 31.370863  
2002-09-30 13:45:32 51°11.406 2°44.778 16.16539 4.018788 31.365121  
2002-09-30 13:46:32 51°11.488 2°45.099 16.172147 4.017839 31.342315  
2002-09-30 13:47:32 51°11.58 2°45.414 16.18134 4.017839 31.344642  
2002-09-30 13:48:32 51°11.67 2°45.735 16.172232 4.016151 31.321254  
2002-09-30 13:49:33 51°11.765 2°46.056 16.448342 4.01457 31.31274  
2002-09-30 13:50:33 51°11.852 2°46.377 16.23297 4.012462 31.305454  
2002-09-30 13:51:33 51°11.935 2°46.7 16.233525 4.010353 31.290027  
2002-09-30 13:52:33 51°12.037 2°47.01 16.2369 4.007928 31.270687  
2002-09-30 13:53:32 51°12.136 2°47.318 16.485853 4.009193 31.275878  
2002-09-30 13:54:32 51°12.235 2°47.632 16.458137 4.008033 31.261733  
2002-09-30 13:55:32 51°12.33 2°47.948 16.383789 4.002551 31.21235  
2002-09-30 13:56:32 51°12.425 2°48.264 16.273929 3.998545 31.182751  
2002-09-30 13:57:32 51°12.523 2°48.578 16.365413 3.994117 31.149485  
2002-09-30 13:58:33 51°12.619 2°48.9 16.294165 3.990532 31.12412  
2002-09-30 13:59:33 51°12.717 2°49.215 16.434414 3.985261 31.074279  
2002-09-30 14:00:32 51°12.81 2°49.529 16.275723 3.977354 31.01828  
2002-09-30 14:01:32 51°12.908 2°49.844 16.357993 3.977565 31.024147  
2002-09-30 14:02:32 51°13.007 2°50.161 16.346904 3.973137 30.981073  
2002-09-30 14:03:32 51°13.101 2°50.479 16.339951 3.973664 30.995441  
2002-09-30 14:04:32 51°13.224 2°50.774 16.444892 3.973242 30.984291  
2002-09-30 14:05:33 51°13.343 2°51.079 16.436459 3.974507 30.975137  
2002-09-30 14:06:33 51°13.464 2°51.377 16.294891 3.974928 30.974773  
2002-09-30 14:07:33 51°13.585 2°51.674 16.237028 3.978618 30.999898  
2002-09-30 14:08:32 51°13.697 2°51.973 16.363707 3.98136 31.039821  
2002-09-30 14:09:33 51°13.817 2°52.28 16.446511 3.983046 31.027392  
2002-09-30 14:10:32 51°13.931 2°52.58 16.431389 3.983362 31.014027  
2002-09-30 14:11:33 51°14.041 2°52.899 16.476318 0.125716 0.758493  
2002-09-30 14:12:33 51°14.15 2°53.212 16.657605 0.063 0.36966  
2002-09-30 14:13:32 51°14.249 2°53.528 16.755108 0.058217 0.340567  
2002-09-30 14:14:32 51°14.338 2°53.857 16.84718 0.056449 0.329716  
2002-09-30 14:15:33 51°14.444 2°54.179 16.876855 0.055202 0.321963  
2002-09-30 14:16:32 51°14.472 2°54.503 17.051939 0.053538 0.311727  
2002-09-30 14:17:32 51°14.444 2°54.82 17.05329 0.052291 0.303996  
2002-09-30 14:18:32 51°14.352 2°55.105 17.192125 0.051043 0.296283  
2002-09-30 14:19:32 51°14.246 2°55.284 17.285297 0.050107 0.290442  
2002-09-30 14:20:31 51°14.159 2°55.4 17.423917 0.04938 0.285839  
2002-09-30 14:21:32 51°14.076 2°55.461 17.446168 0.048964 0.28311  
2002-09-30 14:22:36 51°13.993 2°55.513 17.565528 0.048132 0.277917  
2002-09-30 14:23:37 51°13.916 2°55.563 17.663763 0.047196 0.272123  
2002-09-30 14:24:37 51°13.848 2°55.611 17.758056 0.046573 0.268188  
2002-09-30 14:25:37 51°13.785 2°55.653 17.842665 0.045949 0.264264  
2002-09-30 14:26:37 51°13.736 2°55.711 17.923918 0.045429 0.260966  
2002-09-30 14:27:37 51°13.699 2°55.786 17.992709 0.045117 0.258908